Time;durP1;ratioP1;P1;durP2;ratioP2;P2;SDS_P1;SDS_P2;PMS_P1;PMS_P2;Temp;Humidity;BMP_temperature;BMP_pressure;BME280_temperature;BME280_humidity;BME280_pressure;Samples;Min_cycle;Max_cycle;Signal;HPM_P1;HPM_P2
2022/02/08 00:00:49;;;;;;;9.85;5.03;;;;;;;;;;4975662;28;20062;-76
2022/02/08 00:03:16;;;;;;;8.85;5.10;;;;;;;;;;4974635;28;20030;-75
2022/02/08 00:05:46;;;;;;;12.23;4.78;;;;;;;;;;4956146;28;20027;-75
2022/02/08 00:08:12;;;;;;;9.02;4.90;;;;;;;;;;4970789;28;20419;-76
2022/02/08 00:10:39;;;;;;;11.75;5.35;;;;;;;;;;4974889;28;20094;-76
2022/02/08 00:13:05;;;;;;;8.43;4.80;;;;;;;;;;4974841;28;20023;-76
2022/02/08 00:15:31;;;;;;;10.45;4.55;;;;;;;;;;4974769;28;20089;-76
2022/02/08 00:17:57;;;;;;;10.93;4.20;;;;;;;;;;4973496;28;20039;-76
2022/02/08 00:20:26;;;;;;;11.30;6.30;;;;;;;;;;4973872;28;20038;-76
2022/02/08 00:22:52;;;;;;;6.68;3.90;;;;;;;;;;4974467;28;20607;-76
2022/02/08 00:25:19;;;;;;;9.52;4.63;;;;;;;;;;4974010;28;20114;-76
2022/02/08 00:27:45;;;;;;;9.30;3.80;;;;;;;;;;4974646;28;20034;-76
2022/02/08 00:30:11;;;;;;;11.50;5.07;;;;;;;;;;4974509;28;20038;-75
2022/02/08 00:32:37;;;;;;;8.43;4.80;;;;;;;;;;4974290;28;20030;-75
2022/02/08 00:35:05;;;;;;;8.13;4.40;;;;;;;;;;4973897;28;20167;-76
2022/02/08 00:37:31;;;;;;;7.35;4.15;;;;;;;;;;4974420;28;20022;-75
2022/02/08 00:39:57;;;;;;;8.88;4.32;;;;;;;;;;4973793;28;20022;-75
2022/02/08 00:42:26;;;;;;;7.68;4.30;;;;;;;;;;4973926;28;20059;-75
2022/02/08 00:45:35;;;;;;;13.60;4.20;;;;;;;;;;4974203;28;20022;-75
2022/02/08 00:47:54;;;;;;;9.15;3.78;;;;;;;;;;4969930;28;20094;-75
2022/02/08 00:50:20;;;;;;;7.55;4.03;;;;;;;;;;4973848;28;20297;-76
2022/02/08 00:52:46;;;;;;;9.02;3.55;;;;;;;;;;4973288;28;20391;-76
2022/02/08 00:55:15;;;;;;;10.88;4.07;;;;;;;;;;4973273;28;20103;-75
2022/02/08 00:57:41;;;;;;;8.40;3.65;;;;;;;;;;4956547;28;20038;-75
2022/02/08 01:00:08;;;;;;;11.23;4.68;;;;;;;;;;4974549;28;20081;-76
2022/02/08 01:02:34;;;;;;;7.75;3.60;;;;;;;;;;4973756;28;20022;-76
2022/02/08 01:05:05;;;;;;;9.13;4.03;;;;;;;;;;4974129;28;20491;-76
2022/02/08 01:07:31;;;;;;;10.30;3.90;;;;;;;;;;4956556;28;20523;-76
2022/02/08 01:10:00;;;;;;;9.93;4.20;;;;;;;;;;4974166;28;20058;-76
2022/02/08 01:12:28;;;;;;;10.90;3.72;;;;;;;;;;4973942;28;20480;-76
2022/02/08 01:14:54;;;;;;;11.45;4.32;;;;;;;;;;4974422;28;20079;-76
2022/02/08 01:17:23;;;;;;;11.40;4.22;;;;;;;;;;4955733;28;20496;-75
2022/02/08 01:19:54;;;;;;;12.05;4.30;;;;;;;;;;4974207;28;20033;-76
2022/02/08 01:22:21;;;;;;;11.15;3.90;;;;;;;;;;4973315;28;20440;-76
2022/02/08 01:24:48;;;;;;;8.23;3.75;;;;;;;;;;4974026;28;20510;-76
2022/02/08 01:27:15;;;;;;;15.13;4.00;;;;;;;;;;4973912;28;20035;-77
2022/02/08 01:45:52;;;;;;;10.57;4.03;;;;;;;;;;4907206;29;20033;-76
2022/02/08 01:51:03;;;;;;;12.00;4.55;;;;;;;;;;4895420;29;20358;-76
2022/02/08 01:53:29;;;;;;;10.75;3.90;;;;;;;;;;4905507;29;20647;-76
2022/02/08 01:55:56;;;;;;;10.25;3.83;;;;;;;;;;4910459;29;20048;-76
2022/02/08 01:58:22;;;;;;;10.93;3.75;;;;;;;;;;4909882;29;20111;-76
2022/02/08 02:00:48;;;;;;;11.25;4.28;;;;;;;;;;4917924;29;20119;-75
2022/02/08 02:03:14;;;;;;;13.68;4.30;;;;;;;;;;4904356;29;20036;-76
2022/02/08 02:05:40;;;;;;;11.27;3.60;;;;;;;;;;4910966;29;20600;-75
2022/02/08 02:08:07;;;;;;;10.85;4.03;;;;;;;;;;4910553;29;20533;-75
2022/02/08 02:10:36;;;;;;;9.20;3.83;;;;;;;;;;4901059;29;20044;-75
2022/02/08 02:13:05;;;;;;;11.68;4.03;;;;;;;;;;4911239;29;20123;-75
2022/02/08 02:15:32;;;;;;;15.15;4.18;;;;;;;;;;4917320;29;20084;-76
2022/02/08 02:17:58;;;;;;;9.52;3.60;;;;;;;;;;4913757;29;20036;-75
2022/02/08 02:20:30;;;;;;;9.77;3.50;;;;;;;;;;4908126;29;20039;-76
2022/02/08 02:22:56;;;;;;;10.15;3.50;;;;;;;;;;4949975;28;20103;-76
2022/02/08 02:25:23;;;;;;;14.68;4.20;;;;;;;;;;4977657;28;20048;-76
2022/02/08 02:27:50;;;;;;;8.57;3.35;;;;;;;;;;4976199;28;20045;-75
2022/02/08 02:30:16;;;;;;;14.45;4.22;;;;;;;;;;4976752;28;20023;-76
2022/02/08 02:32:42;;;;;;;11.10;4.10;;;;;;;;;;4963530;28;20027;-75
2022/02/08 02:35:09;;;;;;;12.75;3.85;;;;;;;;;;4958183;29;20062;-76
2022/02/08 02:37:35;;;;;;;10.05;3.55;;;;;;;;;;4968086;28;20057;-75
2022/02/08 02:40:01;;;;;;;16.73;4.60;;;;;;;;;;4977547;28;20035;-75
2022/02/08 02:42:29;;;;;;;12.63;4.20;;;;;;;;;;4976812;28;20085;-75
2022/02/08 02:44:55;;;;;;;12.27;4.60;;;;;;;;;;4977338;28;20073;-75
2022/02/08 02:47:23;;;;;;;12.43;4.38;;;;;;;;;;4976493;28;20122;-75
2022/02/08 02:49:49;;;;;;;12.60;4.28;;;;;;;;;;4976225;28;20019;-75
2022/02/08 02:52:15;;;;;;;11.68;3.83;;;;;;;;;;4976829;28;20039;-75
2022/02/08 02:55:00;;;;;;;16.10;4.57;;;;;;;;;;4967355;28;20109;-78
2022/02/08 02:57:29;;;;;;;15.73;5.00;;;;;;;;;;4997019;28;20019;-77
2022/02/08 03:00:12;;;;;;;12.25;3.42;;;;;;;;;;4997347;28;20041;-77
2022/02/08 03:18:52;;;;;;;11.13;3.63;;;;;;;;;;4975572;28;20065;-74
2022/02/08 03:21:19;;;;;;;8.90;3.42;;;;;;;;;;4958467;28;20019;-75
2022/02/08 03:23:47;;;;;;;13.27;4.60;;;;;;;;;;4975236;28;20038;-73
2022/02/08 03:26:13;;;;;;;12.63;3.97;;;;;;;;;;4975578;28;20031;-73
2022/02/08 03:28:41;;;;;;;11.25;3.83;;;;;;;;;;4975406;28;20136;-74
2022/02/08 03:31:07;;;;;;;13.65;3.80;;;;;;;;;;4970155;28;20027;-75
2022/02/08 03:33:33;;;;;;;11.32;3.50;;;;;;;;;;4972358;28;20508;-74
2022/02/08 03:35:59;;;;;;;10.77;3.33;;;;;;;;;;4975630;28;20038;-73
2022/02/08 03:38:36;;;;;;;11.52;3.67;;;;;;;;;;4975065;28;20023;-74
2022/02/08 03:41:08;;;;;;;15.32;4.03;;;;;;;;;;4975684;28;20128;-74
2022/02/08 03:43:37;;;;;;;10.45;3.50;;;;;;;;;;4969607;28;20074;-73
2022/02/08 03:46:06;;;;;;;10.35;3.92;;;;;;;;;;4980206;28;20047;-74
2022/02/08 03:48:38;;;;;;;10.77;3.58;;;;;;;;;;4959342;28;20027;-74
2022/02/08 03:51:09;;;;;;;11.48;4.50;;;;;;;;;;4972394;28;20110;-75
2022/02/08 03:53:36;;;;;;;9.68;4.70;;;;;;;;;;4965407;28;20027;-74
2022/02/08 03:56:02;;;;;;;12.27;3.80;;;;;;;;;;4963078;28;20058;-73
2022/02/08 03:58:29;;;;;;;15.60;5.28;;;;;;;;;;4969877;28;20388;-74
2022/02/08 04:01:42;;;;;;;17.35;6.18;;;;;;;;;;4973719;28;20030;-74
2022/02/08 04:03:53;;;;;;;15.02;4.30;;;;;;;;;;4972429;28;20101;-74
2022/02/08 04:06:19;;;;;;;12.63;4.35;;;;;;;;;;4972154;28;20034;-75
2022/02/08 04:08:45;;;;;;;20.10;6.70;;;;;;;;;;4971699;28;20063;-74
2022/02/08 04:11:13;;;;;;;20.02;8.68;;;;;;;;;;4972004;28;20037;-74
2022/02/08 04:13:52;;;;;;;21.45;9.63;;;;;;;;;;4974744;28;20054;-75
2022/02/08 04:16:27;;;;;;;14.82;5.22;;;;;;;;;;4962808;28;20050;-74
2022/02/08 04:32:47;;;;;;;10.80;4.65;;;;;;;;;;4968321;28;20097;-75
2022/02/08 04:35:42;;;;;;;17.75;7.20;;;;;;;;;;4973677;28;20027;-74
2022/02/08 04:38:15;;;;;;;10.88;3.92;;;;;;;;;;4971913;28;20106;-75
2022/02/08 04:40:58;;;;;;;8.57;4.35;;;;;;;;;;4957221;28;20065;-74
2022/02/08 04:43:35;;;;;;;13.80;5.25;;;;;;;;;;4957789;28;20110;-74
2022/02/08 04:46:25;;;;;;;12.45;5.25;;;;;;;;;;4970453;28;20469;-74
2022/02/08 04:48:57;;;;;;;12.23;4.10;;;;;;;;;;4966464;28;20460;-76
2022/02/08 04:54:13;;;;;;;9.43;4.50;;;;;;;;;;4971642;28;20122;-74
2022/02/08 05:02:18;;;;;;;13.23;5.70;;;;;;;;;;4974613;28;20041;-74
2022/02/08 05:48:43;;;;;;;14.40;6.05;;;;;;;;;;4787494;29;20127;-73
2022/02/08 05:51:19;;;;;;;20.13;7.95;;;;;;;;;;4785586;30;20027;-74
2022/02/08 05:53:46;;;;;;;13.88;5.55;;;;;;;;;;4785096;30;20039;-74
2022/02/08 05:56:15;;;;;;;17.45;7.50;;;;;;;;;;4784772;29;20122;-75
2022/02/08 05:58:43;;;;;;;20.83;7.82;;;;;;;;;;4788178;30;20502;-76
2022/02/08 06:01:10;;;;;;;19.33;7.57;;;;;;;;;;4823914;29;20128;-76
2022/02/08 06:03:36;;;;;;;14.95;5.63;;;;;;;;;;4868841;29;20037;-77
2022/02/08 06:06:02;;;;;;;15.27;5.82;;;;;;;;;;4867660;29;20189;-77
2022/02/08 06:08:29;;;;;;;20.05;9.80;;;;;;;;;;4927493;28;20050;-73
2022/02/08 06:11:04;;;;;;;12.23;5.90;;;;;;;;;;4976586;28;20031;-74
2022/02/08 06:13:30;;;;;;;38.83;20.38;;;;;;;;;;4979163;28;20061;-74
2022/02/08 06:16:04;;;;;;;17.55;7.50;;;;;;;;;;4974427;28;20046;-72
2022/02/08 06:18:30;;;;;;;;;;;;;;;;;;4973898;28;20023;-76
2022/02/08 06:20:59;;;;;;;26.40;15.13;;;;;;;;;;4977930;28;19997;-74
2022/02/08 06:23:25;;;;;;;21.85;10.63;;;;;;;;;;4989164;28;20491;-75
2022/02/08 06:25:52;;;;;;;25.10;12.40;;;;;;;;;;4993653;28;20022;-74
2022/02/08 06:28:19;;;;;;;16.05;7.25;;;;;;;;;;4983034;28;20045;-73
2022/02/08 06:30:47;;;;;;;20.02;6.53;;;;;;;;;;4979992;28;20516;-73
2022/02/08 06:33:13;;;;;;;22.38;7.03;;;;;;;;;;4976489;28;20178;-74
2022/02/08 06:35:40;;;;;;;16.15;6.85;;;;;;;;;;4975182;28;20173;-74
2022/02/08 06:38:10;;;;;;;14.43;6.00;;;;;;;;;;4985064;28;20019;-74
2022/02/08 06:40:37;;;;;;;15.20;7.60;;;;;;;;;;4979530;28;20031;-76
2022/02/08 06:43:04;;;;;;;17.20;6.38;;;;;;;;;;4978618;28;20026;-76
2022/02/08 06:45:31;;;;;;;14.07;6.65;;;;;;;;;;4981384;28;20029;-74
2022/02/08 06:47:57;;;;;;;15.65;6.20;;;;;;;;;;4976168;28;20041;-72
2022/02/08 06:50:23;;;;;;;16.30;6.30;;;;;;;;;;4976132;28;20027;-71
2022/02/08 06:52:49;;;;;;;13.63;5.55;;;;;;;;;;4976145;28;20034;-72
2022/02/08 06:55:15;;;;;;;14.40;4.93;;;;;;;;;;4977675;28;20011;-72
2022/02/08 06:57:54;;;;;;;12.07;4.70;;;;;;;;;;4977852;28;20030;-73
2022/02/08 07:00:29;;;;;;;17.33;6.15;;;;;;;;;;4979018;28;20105;-75
2022/02/08 07:02:55;;;;;;;9.90;4.78;;;;;;;;;;4985502;28;20031;-75
2022/02/08 07:05:21;;;;;;;13.38;5.10;;;;;;;;;;4967878;28;20057;-73
2022/02/08 07:07:48;;;;;;;14.77;5.15;;;;;;;;;;4980585;28;20050;-76
2022/02/08 07:10:14;;;;;;;13.32;5.13;;;;;;;;;;4979312;28;20027;-77
2022/02/08 07:12:40;;;;;;;15.82;5.20;;;;;;;;;;4980122;28;20027;-74
2022/02/08 07:15:11;;;;;;;16.90;6.40;;;;;;;;;;4977256;28;20170;-74
2022/02/08 07:17:37;;;;;;;12.75;5.03;;;;;;;;;;4986342;28;20054;-78
2022/02/08 07:20:04;;;;;;;9.48;4.35;;;;;;;;;;4991434;28;20019;-75
2022/02/08 07:22:33;;;;;;;23.63;7.22;;;;;;;;;;4994779;28;20050;-75
2022/02/08 07:25:00;;;;;;;16.77;6.50;;;;;;;;;;4991473;28;20038;-76
2022/02/08 07:27:26;;;;;;;16.08;6.22;;;;;;;;;;4988171;28;20113;-76
2022/02/08 07:30:09;;;;;;;14.57;6.22;;;;;;;;;;4981846;28;20428;-77
2022/02/08 07:32:54;;;;;;;19.98;6.53;;;;;;;;;;4985808;28;20078;-78
2022/02/08 07:35:49;;;;;;;15.05;5.90;;;;;;;;;;4995171;28;20059;-76
2022/02/08 07:38:30;;;;;;;15.45;6.57;;;;;;;;;;4974300;28;20091;-76
2022/02/08 07:43:37;;;;;;;20.15;7.57;;;;;;;;;;4982872;28;20041;-79
2022/02/08 07:46:05;;;;;;;17.95;6.43;;;;;;;;;;4975855;28;20027;-78
2022/02/08 07:48:31;;;;;;;20.25;8.75;;;;;;;;;;4969908;28;20033;-76
2022/02/08 07:50:58;;;;;;;20.27;10.35;;;;;;;;;;4974932;28;20030;-78
2022/02/08 07:53:27;;;;;;;20.60;10.10;;;;;;;;;;4974515;28;20031;-81
2022/02/08 07:55:54;;;;;;;22.67;11.15;;;;;;;;;;4974247;28;20022;-79
2022/02/08 07:58:20;;;;;;;20.83;10.75;;;;;;;;;;4974462;28;20059;-80
2022/02/08 08:00:49;;;;;;;26.33;13.63;;;;;;;;;;4956333;28;20043;-81
2022/02/08 08:03:15;;;;;;;22.75;11.30;;;;;;;;;;4978034;28;20030;-77
2022/02/08 08:05:45;;;;;;;19.88;11.52;;;;;;;;;;4992015;28;20023;-77
2022/02/08 08:08:14;;;;;;;21.55;9.63;;;;;;;;;;4988691;28;20034;-76
2022/02/08 08:10:45;;;;;;;20.05;8.52;;;;;;;;;;4981832;28;20392;-78
2022/02/08 08:13:12;;;;;;;22.63;9.70;;;;;;;;;;4987269;28;20477;-78
2022/02/08 08:15:47;;;;;;;16.67;8.18;;;;;;;;;;4985771;28;20063;-75
2022/02/08 08:18:19;;;;;;;19.92;9.05;;;;;;;;;;4974666;28;20026;-76
2022/02/08 08:20:47;;;;;;;16.60;8.45;;;;;;;;;;4977688;28;20374;-75
2022/02/08 08:23:13;;;;;;;20.63;7.15;;;;;;;;;;4985496;28;20115;-73
2022/02/08 08:25:39;;;;;;;19.00;8.02;;;;;;;;;;4969619;28;20031;-76
2022/02/08 08:28:07;;;;;;;16.55;7.30;;;;;;;;;;4978026;28;20117;-76
2022/02/08 08:30:33;;;;;;;26.02;10.63;;;;;;;;;;4983511;28;20019;-75
2022/02/08 08:33:00;;;;;;;19.15;7.15;;;;;;;;;;4976787;28;20476;-74
2022/02/08 08:35:26;;;;;;;19.00;8.20;;;;;;;;;;4979961;28;20516;-77
2022/02/08 08:37:59;;;;;;;22.58;10.52;;;;;;;;;;4976368;28;20023;-75
2022/02/08 08:53:35;;;;;;;16.30;6.85;;;;;;;;;;5882402;23;20061;-75
2022/02/08 08:56:01;;;;;;;18.17;6.00;;;;;;;;;;4975547;28;20026;-77
2022/02/08 08:58:30;;;;;;;14.82;5.70;;;;;;;;;;4991158;28;20053;-75
2022/02/08 09:00:57;;;;;;;17.20;6.53;;;;;;;;;;4986535;28;20030;-75
2022/02/08 09:03:24;;;;;;;17.65;6.57;;;;;;;;;;4994329;28;20369;-78
2022/02/08 09:05:50;;;;;;;16.85;6.80;;;;;;;;;;4984510;28;20031;-74
2022/02/08 09:08:16;;;;;;;15.63;6.38;;;;;;;;;;4989100;28;20034;-75
2022/02/08 09:10:52;;;;;;;18.50;7.07;;;;;;;;;;4984097;28;20374;-76
2022/02/08 09:21:24;;;;;;;23.08;6.30;;;;;;;;;;4984597;28;20045;-76
2022/02/08 09:29:21;;;;;;;19.95;8.15;;;;;;;;;;4974212;28;20045;-73
2022/02/08 09:31:48;;;;;;;28.42;7.47;;;;;;;;;;4976554;28;20026;-73
2022/02/08 09:34:14;;;;;;;13.48;5.90;;;;;;;;;;4974073;28;20559;-73
2022/02/08 09:36:44;;;;;;;30.67;12.82;;;;;;;;;;4973965;28;20034;-73
2022/02/08 09:39:12;;;;;;;17.48;6.57;;;;;;;;;;4973548;28;20026;-73
2022/02/08 09:41:39;;;;;;;18.70;6.50;;;;;;;;;;4973406;28;20035;-73
2022/02/08 09:44:05;;;;;;;14.10;5.55;;;;;;;;;;4970808;28;20022;-72
2022/02/08 09:46:36;;;;;;;19.35;11.00;;;;;;;;;;4973344;28;20023;-73
2022/02/08 09:49:03;;;;;;;62.35;34.78;;;;;;;;;;4972442;28;20054;-73
2022/02/08 09:51:29;;;;;;;15.30;4.43;;;;;;;;;;4974007;28;20027;-73
2022/02/08 09:53:57;;;;;;;20.60;4.03;;;;;;;;;;4980770;28;20065;-73
2022/02/08 09:56:27;;;;;;;13.57;4.63;;;;;;;;;;4993690;28;20152;-74
2022/02/08 09:58:53;;;;;;;18.38;4.70;;;;;;;;;;4993297;28;20038;-73
2022/02/08 10:01:22;;;;;;;15.73;3.88;;;;;;;;;;4999793;28;20022;-74
2022/02/08 10:03:52;;;;;;;31.88;17.35;;;;;;;;;;4993486;28;20121;-73
2022/02/08 10:06:18;;;;;;;27.25;6.00;;;;;;;;;;4992665;28;20053;-74
2022/02/08 10:08:45;;;;;;;13.40;4.82;;;;;;;;;;4992843;28;20061;-74
2022/02/08 10:11:26;;;;;;;13.15;4.80;;;;;;;;;;4992416;28;20034;-74
2022/02/08 10:14:16;;;;;;;21.90;9.75;;;;;;;;;;4993431;28;20033;-73
2022/02/08 10:22:15;;;;;;;13.63;3.72;;;;;;;;;;4996485;28;20030;-77
2022/02/08 10:24:52;;;;;;;8.45;3.47;;;;;;;;;;5010105;28;20034;-72
2022/02/08 10:27:29;;;;;;;12.43;3.58;;;;;;;;;;5007087;28;20034;-78
2022/02/08 10:38:14;;;;;;;10.02;3.45;;;;;;;;;;4993330;28;20045;-76
2022/02/08 10:40:40;;;;;;;12.15;3.60;;;;;;;;;;4997889;28;20058;-75
2022/02/08 10:43:09;;;;;;;10.45;4.47;;;;;;;;;;5007566;28;20082;-78
2022/02/08 10:45:37;;;;;;;9.45;3.40;;;;;;;;;;4994127;28;20026;-74
2022/02/08 10:48:03;;;;;;;12.10;4.70;;;;;;;;;;5005138;28;20065;-74
2022/02/08 10:50:30;;;;;;;12.98;3.40;;;;;;;;;;5001367;28;20338;-73
2022/02/08 10:53:00;;;;;;;10.38;4.30;;;;;;;;;;5006399;28;20077;-75
2022/02/08 11:19:58;;;;;;;9.90;3.92;;;;;;;;;;3910761;23;20571;-75
2022/02/08 11:25:15;;;;;;;20.25;4.30;;;;;;;;;;5007738;28;20037;-76
2022/02/08 11:27:58;;;;;;;9.50;3.83;;;;;;;;;;4987533;28;20054;-77
2022/02/08 11:30:38;;;;;;;11.45;3.80;;;;;;;;;;4989562;28;20026;-78
2022/02/08 11:50:39;;;;;;;11.80;3.90;;;;;;;;;;4929102;29;20187;-75
2022/02/08 11:56:01;;;;;;;10.53;4.03;;;;;;;;;;4917252;29;20494;-76
2022/02/08 11:58:39;;;;;;;8.23;2.90;;;;;;;;;;4920388;29;20838;-75
2022/02/08 12:01:16;;;;;;;10.50;3.45;;;;;;;;;;4937371;29;20540;-75
2022/02/08 12:04:08;;;;;;;13.82;4.25;;;;;;;;;;4921407;29;20119;-75
2022/02/08 12:06:51;;;;;;;12.40;3.60;;;;;;;;;;4919117;29;20137;-77
2022/02/08 12:39:43;;;;;;;14.20;3.92;;;;;;;;;;4994877;28;20037;-76
2022/02/08 13:02:18;;;;;;;9.90;4.22;;;;;;;;;;4975818;28;20046;-78
2022/02/08 13:32:09;;;;;;;12.48;4.13;;;;;;;;;;4963671;29;20521;-75
2022/02/08 14:06:13;;;;;;;19.73;4.78;;;;;;;;;;4977789;28;20077;-74
2022/02/08 14:16:46;;;;;;;19.20;5.55;;;;;;;;;;4977506;28;20038;-74
2022/02/08 14:19:31;;;;;;;18.95;5.68;;;;;;;;;;4960804;28;20026;-77
2022/02/08 14:22:17;;;;;;;47.38;24.70;;;;;;;;;;4979044;28;20472;-74
2022/02/08 14:30:30;;;;;;;21.67;7.65;;;;;;;;;;4963826;28;20499;-73
2022/02/08 14:49:24;;;;;;;14.32;6.35;;;;;;;;;;4990561;28;20049;-78
2022/02/08 14:57:44;;;;;;;17.83;8.25;;;;;;;;;;4987280;28;20122;-74
2022/02/08 15:06:09;;;;;;;26.00;11.27;;;;;;;;;;4925342;29;20501;-74
2022/02/08 15:08:38;;;;;;;25.15;10.80;;;;;;;;;;4923036;29;20054;-75
2022/02/08 15:11:08;;;;;;;18.95;8.65;;;;;;;;;;4915404;29;20581;-75
2022/02/08 15:13:35;;;;;;;29.63;16.45;;;;;;;;;;4918114;29;20036;-75
2022/02/08 15:16:10;;;;;;;26.15;10.40;;;;;;;;;;4922637;29;20036;-76
2022/02/08 15:18:38;;;;;;;14.48;6.68;;;;;;;;;;4904207;29;20063;-75
2022/02/08 15:21:06;;;;;;;16.60;6.38;;;;;;;;;;4918474;29;20044;-75
2022/02/08 15:23:35;;;;;;;18.67;7.70;;;;;;;;;;4921277;29;20115;-76
2022/02/08 15:26:02;;;;;;;15.50;5.63;;;;;;;;;;4924359;29;20048;-76
2022/02/08 15:28:29;;;;;;;21.92;6.72;;;;;;;;;;4927860;29;20107;-78
2022/02/08 15:30:56;;;;;;;17.40;5.72;;;;;;;;;;4915398;29;20033;-76
2022/02/08 15:33:23;;;;;;;20.73;8.23;;;;;;;;;;4917856;29;20044;-76
2022/02/08 15:35:50;;;;;;;25.35;13.75;;;;;;;;;;4926413;29;20033;-76
2022/02/08 15:38:18;;;;;;;25.60;16.75;;;;;;;;;;4903696;29;20032;-76
2022/02/08 15:40:45;;;;;;;30.92;16.13;;;;;;;;;;4962742;28;20046;-76
2022/02/08 15:43:14;;;;;;;22.52;11.55;;;;;;;;;;4966167;28;20049;-76
2022/02/08 15:45:49;;;;;;;22.27;10.73;;;;;;;;;;4971750;28;20504;-76
2022/02/08 15:48:20;;;;;;;19.83;9.27;;;;;;;;;;4977133;28;20043;-76
2022/02/08 15:51:01;;;;;;;27.88;10.60;;;;;;;;;;4995972;28;20029;-79
2022/02/08 16:14:06;;;;;;;17.25;8.13;;;;;;;;;;4951702;29;20125;-73
2022/02/08 16:16:49;;;;;;;17.00;7.90;;;;;;;;;;4948001;29;20111;-74
2022/02/08 16:57:31;;;;;;;54.88;23.20;;;;;;;;;;4931407;28;20618;-76
2022/02/08 17:00:00;;;;;;;58.47;26.38;;;;;;;;;;4943196;29;20051;-75
2022/02/08 17:02:30;;;;;;;47.72;22.45;;;;;;;;;;4921684;29;20121;-77
2022/02/08 17:05:00;;;;;;;48.30;23.00;;;;;;;;;;4937221;29;20036;-74
2022/02/08 17:07:26;;;;;;;54.97;24.55;;;;;;;;;;4935909;29;20487;-78
2022/02/08 17:09:59;;;;;;;48.45;23.10;;;;;;;;;;4923386;29;20048;-75
2022/02/08 17:12:37;;;;;;;42.17;20.23;;;;;;;;;;4917876;29;20502;-75
2022/02/08 17:45:46;;;;;;;34.47;13.93;;;;;;;;;;5008111;28;20041;-78
2022/02/08 17:48:11;;;;;;;31.15;15.45;;;;;;;;;;4979183;28;20057;-75
2022/02/08 17:50:37;;;;;;;35.65;15.52;;;;;;;;;;4979132;28;20027;-78
2022/02/08 17:53:04;;;;;;;32.55;14.38;;;;;;;;;;4982167;28;20031;-77
2022/02/08 17:55:32;;;;;;;34.17;13.63;;;;;;;;;;4992670;28;20033;-77
2022/02/08 17:58:04;;;;;;;41.75;16.75;;;;;;;;;;5121582;23;20047;-78
2022/02/08 18:00:35;;;;;;;34.33;15.07;;;;;;;;;;4988937;28;20030;-77
2022/02/08 18:03:02;;;;;;;34.22;19.23;;;;;;;;;;4993542;28;20396;-77
2022/02/08 18:05:49;;;;;;;56.70;36.15;;;;;;;;;;4981111;28;20090;-77
2022/02/08 18:08:21;;;;;;;31.10;17.73;;;;;;;;;;4992383;28;20041;-76
2022/02/08 18:13:31;;;;;;;28.95;11.80;;;;;;;;;;5757718;23;20050;-79
2022/02/08 18:15:59;;;;;;;22.77;10.60;;;;;;;;;;4980537;28;20026;-76
2022/02/08 18:18:31;;;;;;;21.38;10.35;;;;;;;;;;5004726;28;20279;-76
2022/02/08 18:21:08;;;;;;;21.92;10.43;;;;;;;;;;5007030;28;20034;-76
2022/02/08 19:13:55;;;;;;;13.20;6.38;;;;;;;;;;4885991;29;20052;-77
2022/02/08 19:22:12;;;;;;;23.92;12.50;;;;;;;;;;4842084;29;20113;-79
2022/02/08 19:24:41;;;;;;;28.48;13.35;;;;;;;;;;4852719;29;20033;-78
2022/02/08 19:27:07;;;;;;;16.42;9.15;;;;;;;;;;4851455;29;20569;-76
2022/02/08 19:29:37;;;;;;;14.40;8.45;;;;;;;;;;4853335;29;20040;-77
2022/02/08 19:32:06;;;;;;;13.70;6.88;;;;;;;;;;4852794;29;20102;-78
2022/02/08 19:34:33;;;;;;;16.08;6.50;;;;;;;;;;4850860;29;20050;-77
2022/02/08 19:37:04;;;;;;;15.43;6.75;;;;;;;;;;4841895;29;20045;-75
2022/02/08 19:39:30;;;;;;;10.52;6.07;;;;;;;;;;4869066;29;20102;-77
2022/02/08 19:41:57;;;;;;;14.07;6.45;;;;;;;;;;4861185;29;20038;-75
2022/02/08 19:44:23;;;;;;;14.98;7.05;;;;;;;;;;4854078;29;20095;-76
2022/02/08 19:46:49;;;;;;;13.70;6.72;;;;;;;;;;4844629;29;20038;-74
2022/02/08 19:49:15;;;;;;;12.30;6.53;;;;;;;;;;4839810;29;20105;-76
2022/02/08 19:51:41;;;;;;;13.98;6.75;;;;;;;;;;4924945;29;20043;-76
2022/02/08 19:54:10;;;;;;;14.75;6.70;;;;;;;;;;4917555;29;20091;-75
2022/02/08 19:57:01;;;;;;;13.43;6.70;;;;;;;;;;4917717;29;20382;-74
2022/02/08 19:59:34;;;;;;;14.18;6.57;;;;;;;;;;4936795;29;20106;-76
2022/02/08 20:02:01;;;;;;;14.25;6.85;;;;;;;;;;4955781;28;20030;-75
2022/02/08 20:04:27;;;;;;;19.90;10.20;;;;;;;;;;4956152;29;20027;-75
2022/02/08 20:06:57;;;;;;;33.65;16.63;;;;;;;;;;4956674;28;20042;-75
2022/02/08 20:09:24;;;;;;;18.40;10.18;;;;;;;;;;4955790;29;20027;-75
2022/02/08 20:11:50;;;;;;;19.33;10.07;;;;;;;;;;4955735;29;20019;-75
2022/02/08 20:14:17;;;;;;;21.17;10.88;;;;;;;;;;4967580;28;20046;-75
2022/02/08 20:16:43;;;;;;;13.90;8.15;;;;;;;;;;4976006;28;20023;-75
2022/02/08 20:19:11;;;;;;;17.65;8.30;;;;;;;;;;4975804;28;20019;-75
2022/02/08 20:21:38;;;;;;;16.80;8.13;;;;;;;;;;4974692;28;20027;-75
2022/02/08 20:24:05;;;;;;;15.23;7.40;;;;;;;;;;4975610;28;20045;-75
2022/02/08 20:29:20;;;;;;;14.43;6.30;;;;;;;;;;4976418;28;20174;-75
2022/02/08 20:31:47;;;;;;;13.68;6.88;;;;;;;;;;4975202;28;20022;-76
2022/02/08 20:34:17;;;;;;;14.75;7.25;;;;;;;;;;4975232;28;20184;-75
2022/02/08 20:36:43;;;;;;;14.02;6.30;;;;;;;;;;4974437;28;20436;-75
2022/02/08 20:39:12;;;;;;;16.30;7.30;;;;;;;;;;4974068;28;20046;-76
2022/02/08 20:41:38;;;;;;;14.30;6.75;;;;;;;;;;4976478;28;20042;-74
2022/02/08 20:44:07;;;;;;;10.38;5.55;;;;;;;;;;4953923;29;20114;-75
2022/02/08 20:46:33;;;;;;;11.77;6.30;;;;;;;;;;4971967;28;20031;-75
2022/02/08 20:49:00;;;;;;;9.52;5.63;;;;;;;;;;4974838;28;20041;-75
2022/02/08 20:51:28;;;;;;;10.85;5.90;;;;;;;;;;4973748;28;20034;-76
2022/02/08 20:53:58;;;;;;;11.55;5.70;;;;;;;;;;4986329;28;20448;-76
2022/02/08 20:56:35;;;;;;;11.10;5.70;;;;;;;;;;4974533;28;20042;-75
2022/02/08 21:01:30;;;;;;;11.80;5.88;;;;;;;;;;4991715;28;20031;-75
2022/02/08 21:04:01;;;;;;;13.65;6.35;;;;;;;;;;4977737;28;20026;-76
2022/02/08 21:06:29;;;;;;;12.85;6.03;;;;;;;;;;4974768;28;20023;-76
2022/02/08 21:09:06;;;;;;;13.32;6.57;;;;;;;;;;4981517;28;20039;-76
2022/02/08 21:11:35;;;;;;;13.40;8.20;;;;;;;;;;4975903;28;20023;-74
2022/02/08 21:14:04;;;;;;;11.70;5.70;;;;;;;;;;4977308;28;20051;-75
2022/02/08 21:16:42;;;;;;;10.50;5.90;;;;;;;;;;4977378;28;20081;-75
2022/02/08 21:19:08;;;;;;;8.43;5.03;;;;;;;;;;4971418;28;20027;-76
2022/02/08 21:21:35;;;;;;;8.57;4.80;;;;;;;;;;4974746;28;20083;-76
2022/02/08 21:24:01;;;;;;;10.80;4.93;;;;;;;;;;4974307;28;20026;-75
2022/02/08 21:26:32;;;;;;;8.70;4.70;;;;;;;;;;4974281;28;20503;-75
2022/02/08 21:49:58;;;;;;;8.20;4.30;;;;;;;;;;4974016;28;20118;-75
2022/02/08 21:52:34;;;;;;;6.95;4.00;;;;;;;;;;4978986;28;20022;-75
2022/02/08 21:55:08;;;;;;;8.48;4.05;;;;;;;;;;4976728;28;20472;-75
2022/02/08 22:00:19;;;;;;;9.43;4.18;;;;;;;;;;4982107;28;20030;-75
2022/02/08 22:02:45;;;;;;;9.70;4.75;;;;;;;;;;4973384;28;20031;-75
2022/02/08 22:05:12;;;;;;;9.55;4.70;;;;;;;;;;4972617;28;20402;-76
2022/02/08 22:07:38;;;;;;;8.10;4.60;;;;;;;;;;4976143;28;20455;-75
2022/02/08 22:10:19;;;;;;;10.35;4.35;;;;;;;;;;4974267;28;20027;-75
2022/02/08 22:21:17;;;;;;;7.18;4.22;;;;;;;;;;4977737;28;20034;-75
2022/02/08 22:23:51;;;;;;;7.20;3.97;;;;;;;;;;4977103;28;20031;-76
2022/02/08 22:29:13;;;;;;;8.73;4.47;;;;;;;;;;4977786;28;20101;-75
2022/02/08 22:31:45;;;;;;;11.52;4.70;;;;;;;;;;4977059;28;20094;-77
2022/02/08 22:34:31;;;;;;;13.52;4.88;;;;;;;;;;4972321;28;20031;-75
2022/02/08 22:37:10;;;;;;;7.72;4.50;;;;;;;;;;4977544;28;20082;-75
2022/02/08 22:39:46;;;;;;;8.43;4.45;;;;;;;;;;4957992;28;20049;-76
2022/02/08 22:42:21;;;;;;;8.32;4.25;;;;;;;;;;4978357;28;20037;-75
2022/02/08 22:44:57;;;;;;;9.48;4.22;;;;;;;;;;4977982;28;20034;-74
2022/02/08 22:47:24;;;;;;;7.70;4.05;;;;;;;;;;4977336;28;20031;-75
2022/02/08 22:49:51;;;;;;;6.97;4.28;;;;;;;;;;4978306;28;20101;-75
2022/02/08 22:52:19;;;;;;;10.38;4.65;;;;;;;;;;4976406;28;20480;-75
2022/02/08 22:54:46;;;;;;;7.97;4.75;;;;;;;;;;4977960;28;20047;-77
2022/02/08 22:57:13;;;;;;;7.70;4.57;;;;;;;;;;4979348;28;20027;-75
2022/02/08 22:59:40;;;;;;;9.38;4.78;;;;;;;;;;4979194;28;20025;-76
2022/02/08 23:02:06;;;;;;;6.65;4.35;;;;;;;;;;4977792;28;20035;-76
2022/02/08 23:04:34;;;;;;;9.40;4.15;;;;;;;;;;4978201;28;20073;-76
2022/02/08 23:07:01;;;;;;;7.95;4.30;;;;;;;;;;4981871;28;20035;-75
2022/02/08 23:37:07;;;;;;;8.77;5.00;;;;;;;;;;4880572;29;20571;-75
2022/02/08 23:39:35;;;;;;;8.95;4.85;;;;;;;;;;4871981;29;20124;-76
2022/02/08 23:42:05;;;;;;;9.07;5.30;;;;;;;;;;4898086;29;20103;-76
2022/02/08 23:44:37;;;;;;;8.40;5.28;;;;;;;;;;4897958;29;20454;-75
2022/02/08 23:47:05;;;;;;;8.55;5.03;;;;;;;;;;4895969;29;20067;-76
2022/02/08 23:49:37;;;;;;;10.88;5.68;;;;;;;;;;4922245;29;20048;-76
2022/02/08 23:52:08;;;;;;;9.55;5.50;;;;;;;;;;4956650;28;20023;-76
2022/02/08 23:54:36;;;;;;;10.35;6.30;;;;;;;;;;4955936;28;20477;-75
2022/02/08 23:57:15;;;;;;;9.50;5.10;;;;;;;;;;4957154;28;20544;-76
2022/02/08 23:59:49;;;;;;;10.32;6.13;;;;;;;;;;4957999;28;20027;-75
